Orlando, Florida
Traffic Map
Current Weather Conditions
Orlando, Florida
Overcast
Overcast
81°
Feels Like: 87°
Wind Chill: 81° Ceiling: 10000
Heat Index: 87° Visibility: 10mi
Dew Point: 75° Wind: 5mph
Humidity: 82% Direction: 220° (SW)
Pressure: 30in Gusts: 0mph
Raw Report DataKORL 290453Z 22004KT 10SM OVC100 27/24 A3000 RMK AO2 LTG DSNT E-S SLP159 T02720239 403500256
Traffic Incident Summary
Active as of:
Severity:
Category:
InformationThere was an issue retrieving the traffic information for this location. Please try a different location or try again shortly.
Advertisements
Track Severe Weather on mobile